createdAt,value
2023-07-25T03:15:51.546Z,6.75
2023-07-25T03:18:54.340Z,4.90
2023-07-25T03:21:56.638Z,5.65
2023-07-25T03:24:59.189Z,3.33
2023-07-25T03:28:01.442Z,3.85
2023-07-25T03:31:05.090Z,5.57
2023-07-25T03:34:08.261Z,2.53
2023-07-25T03:37:11.017Z,3.70
2023-07-25T03:40:13.338Z,4.10
2023-07-25T03:43:16.048Z,6.53
2023-07-25T03:46:18.342Z,6.15
2023-07-25T03:49:20.849Z,2.62
2023-07-25T03:52:23.091Z,4.90
2023-07-25T03:55:25.597Z,2.10
2023-07-25T03:58:27.737Z,4.60
2023-07-25T04:01:31.763Z,2.60
2023-07-25T04:04:34.822Z,6.50
2023-07-25T04:07:37.076Z,3.65
2023-07-25T04:10:39.757Z,4.00
2023-07-25T04:13:42.311Z,4.85
2023-07-25T04:16:44.763Z,4.18
2023-07-25T04:19:47.102Z,7.12
2023-07-25T04:22:49.679Z,6.22
2023-07-25T04:25:51.926Z,3.30
2023-07-25T04:28:54.449Z,4.30
2023-07-25T04:31:57.266Z,3.65
2023-07-25T04:34:59.939Z,4.87
2023-07-25T04:38:02.166Z,5.50
2023-07-25T04:41:04.888Z,4.75
2023-07-25T04:44:07.813Z,3.80
2023-07-25T04:47:10.414Z,5.70
2023-07-25T04:50:12.686Z,5.90
2023-07-25T04:53:15.147Z,7.30
2023-07-25T04:56:17.389Z,7.43
2023-07-25T04:59:20.376Z,6.35
2023-07-25T05:02:23.529Z,3.45
2023-07-25T05:05:26.014Z,4.78
2023-07-25T05:08:28.615Z,6.50
2023-07-25T05:11:31.288Z,4.35
2023-07-25T05:14:33.690Z,5.18
2023-07-25T05:17:36.220Z,6.25
2023-07-25T05:20:39.006Z,6.95
2023-07-25T05:23:41.756Z,3.75
2023-07-25T05:26:43.938Z,4.85
2023-07-25T05:29:46.367Z,4.97
2023-07-25T05:32:50.599Z,3.53
2023-07-25T05:36:03.176Z,6.68
2023-07-25T05:39:05.398Z,5.20
2023-07-25T05:42:08.180Z,5.32
2023-07-25T05:45:10.955Z,4.60
2023-07-25T05:48:13.465Z,4.95
2023-07-25T05:51:15.786Z,5.40
2023-07-25T05:54:18.775Z,5.25
2023-07-25T05:57:21.259Z,6.45
2023-07-25T06:00:23.827Z,5.28
2023-07-25T06:03:26.694Z,3.10
2023-07-25T06:06:29.013Z,6.22
2023-07-25T06:09:31.588Z,3.45
2023-07-25T06:12:33.986Z,6.50
2023-07-25T06:15:36.765Z,4.20
2023-07-25T06:18:39.701Z,4.32
2023-07-25T06:21:43.246Z,9.07
2023-07-25T06:24:45.692Z,5.43
2023-07-25T06:27:48.236Z,6.12
2023-07-25T06:30:50.484Z,5.45
2023-07-25T06:33:53.009Z,8.48
2023-07-25T06:36:56.966Z,5.50
2023-07-25T06:40:01.231Z,5.95
2023-07-25T06:43:03.466Z,7.35
2023-07-25T06:46:06.353Z,6.03
2023-07-25T06:49:08.673Z,7.53
2023-07-25T06:52:11.096Z,5.80
2023-07-25T06:55:13.883Z,4.82
2023-07-25T06:58:16.399Z,5.07
2023-07-25T07:01:18.906Z,5.18
2023-07-25T07:04:21.414Z,4.37
2023-07-25T07:07:23.602Z,5.68
2023-07-25T07:10:26.179Z,3.67
2023-07-25T07:13:28.901Z,6.82
2023-07-25T07:16:31.430Z,6.03
2023-07-25T07:19:33.624Z,5.22
2023-07-25T07:22:36.503Z,4.25
2023-07-25T07:25:39.617Z,7.15
2023-07-25T07:28:42.858Z,5.10
2023-07-25T07:31:45.209Z,4.93
2023-07-25T07:34:47.673Z,3.60
2023-07-25T07:37:49.898Z,4.60
2023-07-25T07:40:52.497Z,8.10
2023-07-25T07:43:55.591Z,4.68
2023-07-25T07:46:58.100Z,6.37
2023-07-25T07:50:03.123Z,4.93
2023-07-25T07:53:09.859Z,7.15
2023-07-25T07:56:13.658Z,4.90
2023-07-25T07:59:16.364Z,4.45
2023-07-25T08:02:19.474Z,6.65
2023-07-25T08:05:22.239Z,5.72
2023-07-25T08:08:24.594Z,6.47
2023-07-25T08:11:27.095Z,3.80
2023-07-25T08:14:29.454Z,7.50
2023-07-25T08:17:32.166Z,4.35
2023-07-25T08:20:34.940Z,12.05
2023-07-25T08:23:37.373Z,5.32
2023-07-25T08:26:39.573Z,4.45
2023-07-25T08:29:46.705Z,3.15
2023-07-25T08:32:49.174Z,5.70
2023-07-25T08:35:52.997Z,4.93
2023-07-25T08:38:55.304Z,8.25
2023-07-25T08:41:59.541Z,4.70
2023-07-25T08:45:06.799Z,3.92
2023-07-25T08:48:13.571Z,6.40
2023-07-25T08:51:22.787Z,7.60
2023-07-25T08:54:32.661Z,5.45
2023-07-25T08:57:35.468Z,5.93
2023-07-25T09:00:38.008Z,5.82
2023-07-25T09:03:41.242Z,5.95
2023-07-25T09:06:43.954Z,5.10
2023-07-25T09:09:46.231Z,8.02
2023-07-25T09:12:48.728Z,5.37
2023-07-25T09:15:50.952Z,5.62
2023-07-25T09:18:54.280Z,4.85
2023-07-25T09:21:59.196Z,4.97
2023-07-25T09:25:01.858Z,10.20
2023-07-25T09:28:07.121Z,5.75
2023-07-25T09:31:09.600Z,6.43
2023-07-25T09:34:17.516Z,6.47
2023-07-25T09:37:19.994Z,4.80
2023-07-25T09:40:22.543Z,5.20
2023-07-25T09:43:27.629Z,8.00
2023-07-25T09:46:29.897Z,8.38
2023-07-25T09:49:32.886Z,5.93
2023-07-25T09:52:43.438Z,5.10
2023-07-25T09:55:46.708Z,4.00
2023-07-25T09:59:06.714Z,9.25
2023-07-25T10:02:11.571Z,8.35
2023-07-25T10:05:14.753Z,6.55
2023-07-25T10:08:22.317Z,5.45
2023-07-25T10:11:25.748Z,4.37
2023-07-25T10:14:28.022Z,8.93
2023-07-25T10:17:30.561Z,7.82
2023-07-25T10:20:32.918Z,6.35
2023-07-25T10:23:36.245Z,4.05
2023-07-25T10:26:53.643Z,5.75
2023-07-25T10:30:01.918Z,5.95
2023-07-25T10:33:04.960Z,4.60
2023-07-25T10:36:21.419Z,5.28
2023-07-25T10:39:27.254Z,5.43
2023-07-25T10:42:51.858Z,5.50
2023-07-25T10:46:02.613Z,5.50
2023-07-25T10:49:16.565Z,506.98
2023-07-25T10:52:38.630Z,601.55
2023-07-25T10:56:12.915Z,642.42
2023-07-25T10:59:15.336Z,651.90
2023-07-25T11:02:33.121Z,667.67
2023-07-25T11:05:35.746Z,673.22
2023-07-25T11:08:40.902Z,679.10
2023-07-25T11:11:48.213Z,685.67
2023-07-25T11:14:51.792Z,662.42
2023-07-25T11:17:54.361Z,680.22
2023-07-25T11:21:05.137Z,683.12
2023-07-25T11:24:08.849Z,678.75
2023-07-25T11:27:12.405Z,669.72
2023-07-25T11:30:19.215Z,676.65
2023-07-25T11:33:21.845Z,682.42
2023-07-25T11:36:24.032Z,659.87
2023-07-25T11:39:26.800Z,669.50
2023-07-25T11:42:29.280Z,666.83
2023-07-25T11:45:31.901Z,671.35
2023-07-25T11:48:34.564Z,674.20
2023-07-25T11:51:38.516Z,673.30
2023-07-25T11:54:41.282Z,662.22
2023-07-25T11:57:44.017Z,665.12
2023-07-25T12:00:52.445Z,669.15
2023-07-25T12:03:54.962Z,674.58
2023-07-25T12:07:00.474Z,631.85
2023-07-25T12:10:03.093Z,635.25
2023-07-25T12:13:09.566Z,620.22
2023-07-25T12:16:24.404Z,631.72
2023-07-25T12:19:32.185Z,643.67
2023-07-25T12:22:34.682Z,623.30
2023-07-25T12:25:37.313Z,624.03
2023-07-25T12:28:44.636Z,626.58
2023-07-25T12:31:46.857Z,615.58
2023-07-25T12:34:50.129Z,606.20
2023-07-25T12:37:52.350Z,599.22
2023-07-25T12:40:55.045Z,590.47
2023-07-25T12:43:57.894Z,571.65
2023-07-25T12:47:01.528Z,589.20
2023-07-25T12:50:03.928Z,602.47
2023-07-25T12:53:07.401Z,587.03
2023-07-25T12:56:09.735Z,607.12
2023-07-25T12:59:12.191Z,583.72
2023-07-25T13:02:14.397Z,589.55
2023-07-25T13:05:18.038Z,634.35
2023-07-25T13:08:21.444Z,612.88
2023-07-25T13:11:23.956Z,624.20
2023-07-25T13:14:26.273Z,632.28
2023-07-25T13:17:28.815Z,611.60
2023-07-25T13:20:31.136Z,610.70
2023-07-25T13:23:33.588Z,619.37
2023-07-25T13:26:35.828Z,587.75
2023-07-25T13:29:38.415Z,594.20
2023-07-25T13:32:41.369Z,595.40
2023-07-25T13:35:44.001Z,592.83
2023-07-25T13:38:46.214Z,607.20
2023-07-25T13:41:48.779Z,589.47
2023-07-25T13:44:51.507Z,592.53
2023-07-25T13:47:53.976Z,608.85
2023-07-25T13:50:56.218Z,606.63
2023-07-25T13:53:58.833Z,645.75
2023-07-25T13:57:01.717Z,648.42
2023-07-25T14:00:04.796Z,644.33
2023-07-25T14:03:07.176Z,638.75
2023-07-25T14:06:09.926Z,661.10
2023-07-25T14:09:12.181Z,656.35
2023-07-25T14:12:14.741Z,652.58
2023-07-25T14:15:17.496Z,653.38
2023-07-25T14:18:20.166Z,645.83
2023-07-25T14:21:22.369Z,652.92
2023-07-25T14:24:25.421Z,672.95
2023-07-25T14:27:27.654Z,654.47
2023-07-25T14:30:32.760Z,665.42
2023-07-25T14:33:35.015Z,656.47
2023-07-25T14:36:37.534Z,662.00
2023-07-25T14:39:40.607Z,663.90
2023-07-25T14:42:43.933Z,658.38
2023-07-25T14:45:46.341Z,663.92
2023-07-25T14:48:48.915Z,678.38
2023-07-25T14:51:51.206Z,667.40
2023-07-25T14:54:53.828Z,658.47
2023-07-25T14:57:56.017Z,660.20
2023-07-25T15:00:58.598Z,669.50
2023-07-25T15:04:00.803Z,672.40
2023-07-25T15:07:03.316Z,667.12
2023-07-25T15:10:06.104Z,669.80
